Time;durP1;ratioP1;P1;durP2;ratioP2;P2;SDS_P1;SDS_P2;PMS_P1;PMS_P2;Temp;Humidity;BMP_temperature;BMP_pressure;BME280_temperature;BME280_humidity;BME280_pressure;Samples;Min_cycle;Max_cycle;Signal;HPM_P1;HPM_P2
2022/05/15 00:00:38;;;;;;;343.35;208.10;;;;;;;21.62;60.35;99557.94;339773;29;1453;-75
2022/05/15 00:00:48;;;;;;;345.52;210.70;;;;;;;21.59;59.90;99559.06;339051;29;1016;-75
2022/05/15 00:00:59;;;;;;;347.90;211.30;;;;;;;21.59;59.84;99556.41;338502;29;744;-75
2022/05/15 00:01:10;;;;;;;349.88;212.88;;;;;;;21.60;59.76;99559.91;339653;29;1973;-74
2022/05/15 00:01:20;;;;;;;348.30;212.20;;;;;;;21.56;60.09;99554.84;339712;29;1454;-75
2022/05/15 00:01:31;;;;;;;347.37;212.17;;;;;;;21.60;60.07;99554.56;338528;29;941;-75
2022/05/15 00:01:41;;;;;;;348.23;210.07;;;;;;;21.60;60.02;99551.91;335924;29;843;-75
2022/05/15 00:01:51;;;;;;;351.53;213.23;;;;;;;21.61;60.20;99556.25;338403;29;1205;-75
2022/05/15 00:02:03;;;;;;;348.25;210.57;;;;;;;21.60;60.11;99562.56;339713;29;1296;-75
2022/05/15 00:02:13;;;;;;;347.05;210.82;;;;;;;21.57;60.11;99561.84;337262;29;894;-75
2022/05/15 00:02:23;;;;;;;349.70;212.63;;;;;;;21.56;60.02;99560.16;337225;29;1328;-75
2022/05/15 00:02:34;;;;;;;351.10;214.85;;;;;;;21.56;60.06;99559.31;339776;29;1323;-75
2022/05/15 00:02:45;;;;;;;351.00;215.17;;;;;;;21.56;60.19;99559.31;337163;29;1326;-75
2022/05/15 00:02:55;;;;;;;348.73;211.25;;;;;;;21.57;59.95;99555.69;338409;29;1515;-75
2022/05/15 00:03:11;;;;;;;347.80;206.95;;;;;;;21.57;60.13;99556.53;338769;29;2189;-75
2022/05/15 00:03:22;;;;;;;349.63;212.27;;;;;;;21.58;59.93;99562.69;336098;29;5403;-75
2022/05/15 00:03:33;;;;;;;350.10;213.70;;;;;;;21.58;59.88;99550.22;336605;29;3187;-75
2022/05/15 00:03:43;;;;;;;352.15;216.27;;;;;;;21.60;60.19;99559.91;338234;28;1754;-75
2022/05/15 00:03:53;;;;;;;349.03;211.33;;;;;;;21.59;60.02;99553.72;340990;28;3454;-75
2022/05/15 00:04:04;;;;;;;350.60;213.23;;;;;;;21.60;60.14;99554.56;339768;29;932;-75
2022/05/15 00:04:14;;;;;;;346.40;208.90;;;;;;;21.57;59.76;99555.69;335885;29;900;-75
2022/05/15 00:04:25;;;;;;;347.35;209.82;;;;;;;21.54;59.78;99550.63;337232;29;1616;-75
2022/05/15 00:04:35;;;;;;;346.50;209.03;;;;;;;21.51;60.09;99556.22;338334;29;1408;-75
2022/05/15 00:04:46;;;;;;;346.53;207.80;;;;;;;21.50;60.32;99552.72;339679;29;1332;-75
2022/05/15 00:04:56;;;;;;;347.40;206.85;;;;;;;21.50;60.31;99552.72;338423;29;1250;-75
2022/05/15 00:05:08;;;;;;;348.27;208.87;;;;;;;21.49;60.39;99550.19;334559;29;1489;-75
2022/05/15 00:05:18;;;;;;;347.48;209.90;;;;;;;21.45;60.19;99557.59;338680;29;893;-75
2022/05/15 00:05:28;;;;;;;347.65;211.82;;;;;;;21.47;60.64;99555.63;338831;29;1914;-75
2022/05/15 00:05:39;;;;;;;349.23;210.63;;;;;;;21.45;60.45;99557.59;340886;28;1205;-76
2022/05/15 00:05:55;;;;;;;349.25;210.93;;;;;;;21.45;60.64;99560.25;337108;29;1371;-75
2022/05/15 00:06:05;;;;;;;346.17;209.35;;;;;;;21.47;60.40;99552.97;339628;29;1316;-75
2022/05/15 00:06:15;;;;;;;348.92;210.60;;;;;;;21.45;60.12;99552.25;338459;29;1352;-75
2022/05/15 00:06:26;;;;;;;352.20;213.23;;;;;;;21.47;60.28;99550.31;337222;29;994;-75
2022/05/15 00:06:36;;;;;;;354.50;216.57;;;;;;;21.50;60.39;99550.03;335869;29;860;-75
2022/05/15 00:06:47;;;;;;;352.60;215.63;;;;;;;21.52;60.03;99558.75;338499;29;981;-75
2022/05/15 00:06:57;;;;;;;350.90;214.20;;;;;;;21.53;60.11;99563.09;341102;29;1282;-75
2022/05/15 00:07:07;;;;;;;348.97;212.70;;;;;;;21.52;60.16;99553.41;338406;29;1227;-75
2022/05/15 00:07:18;;;;;;;350.00;213.53;;;;;;;21.53;60.10;99555.09;339629;29;1221;-75
2022/05/15 00:07:28;;;;;;;350.88;213.90;;;;;;;21.52;60.04;99553.41;338445;29;1397;-75
2022/05/15 00:07:39;;;;;;;352.63;212.27;;;;;;;21.53;60.42;99555.09;338548;29;888;-75
2022/05/15 00:07:49;;;;;;;353.67;212.30;;;;;;;21.52;59.85;99548.09;341160;29;929;-75
2022/05/15 00:08:00;;;;;;;354.63;214.53;;;;;;;21.52;60.18;99557.91;338344;29;1228;-75
2022/05/15 00:08:10;;;;;;;353.88;218.13;;;;;;;21.51;59.93;99549.06;339693;29;1412;-75
2022/05/15 00:08:21;;;;;;;353.17;218.03;;;;;;;21.49;60.21;99556.34;338225;29;1566;-75
2022/05/15 00:08:32;;;;;;;352.48;215.52;;;;;;;21.49;60.20;99553.69;335976;29;938;-75
2022/05/15 00:08:43;;;;;;;350.58;212.50;;;;;;;21.51;59.86;99559.72;340832;29;1016;-75
2022/05/15 00:08:53;;;;;;;348.87;207.67;;;;;;;21.52;60.22;99553.41;338564;29;858;-75
2022/05/15 00:09:03;;;;;;;345.10;205.27;;;;;;;21.53;60.15;99563.09;338525;29;764;-75
2022/05/15 00:09:14;;;;;;;344.73;205.65;;;;;;;21.54;59.92;99558.63;335693;29;2652;-75
2022/05/15 00:09:24;;;;;;;345.43;208.47;;;;;;;21.53;60.07;99548.94;338267;29;1195;-75
2022/05/15 00:09:35;;;;;;;349.50;209.55;;;;;;;21.55;59.96;99553.16;338478;29;869;-75
2022/05/15 00:09:45;;;;;;;349.63;207.57;;;;;;;21.49;60.24;99543.03;337263;29;1093;-75
2022/05/15 00:09:55;;;;;;;349.00;205.52;;;;;;;21.48;60.20;99552.00;335725;29;1342;-75
2022/05/15 00:10:06;;;;;;;347.50;203.33;;;;;;;21.49;60.40;99558.16;339820;29;881;-75
2022/05/15 00:10:17;;;;;;;348.30;204.50;;;;;;;21.47;60.25;99560.97;339637;29;1217;-75
2022/05/15 00:10:27;;;;;;;347.17;204.93;;;;;;;21.47;60.26;99560.97;339867;29;903;-75
2022/05/15 00:10:38;;;;;;;347.23;205.73;;;;;;;21.46;60.27;99547.78;335864;29;1298;-75
2022/05/15 00:10:49;;;;;;;346.58;205.20;;;;;;;21.45;60.50;99541.59;339703;29;1397;-75
2022/05/15 00:11:00;;;;;;;346.30;203.30;;;;;;;21.45;60.24;99556.75;340685;29;2033;-73
2022/05/15 00:11:13;;;;;;;346.87;201.90;;;;;;;21.46;60.57;99553.94;338374;29;1880;-73
2022/05/15 00:11:23;;;;;;;349.20;203.57;;;;;;;21.48;60.12;99556.47;333854;29;966;-73
2022/05/15 00:11:33;;;;;;;351.50;207.27;;;;;;;21.49;60.32;99559.00;336862;29;1445;-73
2022/05/15 00:11:44;;;;;;;350.47;208.57;;;;;;;21.48;60.29;99552.00;338471;29;1263;-73
2022/05/15 00:11:54;;;;;;;349.80;207.43;;;;;;;21.42;59.97;99547.19;335826;29;901;-73
2022/05/15 00:12:05;;;;;;;349.80;207.73;;;;;;;21.47;60.27;99552.97;334618;29;1625;-73
2022/05/15 00:12:16;;;;;;;350.52;209.52;;;;;;;21.48;60.27;99549.34;337193;29;1163;-73
2022/05/15 00:12:26;;;;;;;352.02;211.45;;;;;;;21.50;60.64;99558.03;339161;29;4211;-73
2022/05/15 00:12:37;;;;;;;351.70;212.47;;;;;;;21.50;60.46;99554.53;338173;29;3517;-73
2022/05/15 00:12:47;;;;;;;352.55;210.23;;;;;;;21.47;60.10;99552.97;339277;29;3246;-73
2022/05/15 00:12:57;;;;;;;353.73;210.97;;;;;;;21.48;60.29;99557.31;335607;29;1932;-73
2022/05/15 00:13:09;;;;;;;353.93;211.30;;;;;;;21.50;59.91;99555.38;336725;29;6137;-73
2022/05/15 00:13:20;;;;;;;352.10;210.55;;;;;;;21.51;60.50;99556.22;339753;29;1308;-73
2022/05/15 00:13:31;;;;;;;349.75;207.38;;;;;;;21.50;59.93;99552.72;338501;29;979;-73
2022/05/15 00:13:41;;;;;;;347.95;206.57;;;;;;;21.50;59.99;99555.38;334960;29;899;-75
2022/05/15 00:13:51;;;;;;;346.10;207.00;;;;;;;21.49;60.42;99556.34;335731;29;1314;-75
2022/05/15 00:14:02;;;;;;;346.20;205.73;;;;;;;21.46;60.53;99553.94;338205;29;1843;-75
2022/05/15 00:14:13;;;;;;;345.18;204.46;;;;;;;21.46;60.10;99551.28;338357;29;1609;-75
2022/05/15 00:14:23;;;;;;;346.80;205.17;;;;;;;21.45;60.45;99549.59;339929;29;1281;-75
2022/05/15 00:14:34;;;;;;;346.70;204.20;;;;;;;21.44;60.47;99555.91;335744;29;1178;-75
2022/05/15 00:14:44;;;;;;;348.10;203.80;;;;;;;21.44;60.21;99558.56;334581;29;1410;-75
2022/05/15 00:14:55;;;;;;;347.23;201.83;;;;;;;21.42;60.49;99551.69;337169;29;1341;-75
2022/05/15 00:15:05;;;;;;;347.60;202.23;;;;;;;21.38;60.58;99556.44;339619;29;1200;-75
2022/05/15 00:15:16;;;;;;;347.65;200.85;;;;;;;21.38;60.64;99555.59;341024;29;1210;-75
2022/05/15 00:15:26;;;;;;;349.70;202.37;;;;;;;21.38;60.43;99559.09;339248;29;1536;-75
2022/05/15 00:15:37;;;;;;;350.38;205.88;;;;;;;21.37;60.90;99554.75;338558;29;851;-75
2022/05/15 00:15:50;;;;;;;353.65;210.50;;;;;;;21.39;60.61;99554.59;337089;29;1399;-75
2022/05/15 00:16:01;;;;;;;350.48;208.82;;;;;;;21.41;60.54;99552.66;334685;29;935;-75
2022/05/15 00:16:11;;;;;;;351.23;208.67;;;;;;;21.41;60.81;99550.84;334628;29;893;-75
2022/05/15 00:16:22;;;;;;;348.65;205.82;;;;;;;21.40;60.83;99554.47;337189;29;847;-75
2022/05/15 00:16:32;;;;;;;349.60;205.67;;;;;;;21.42;60.66;99551.69;337145;29;1195;-75
2022/05/15 00:16:43;;;;;;;350.08;204.90;;;;;;;21.41;60.53;99553.50;337221;29;797;-75
2022/05/15 00:16:53;;;;;;;350.93;204.97;;;;;;;21.43;60.68;99553.38;335750;29;1235;-75
2022/05/15 00:17:03;;;;;;;350.85;203.93;;;;;;;21.44;60.63;99547.91;337093;29;1320;-75
2022/05/15 00:17:14;;;;;;;348.63;202.40;;;;;;;21.45;60.34;99554.09;341088;29;849;-75
2022/05/15 00:17:25;;;;;;;347.70;204.50;;;;;;;21.45;60.36;99552.25;338488;29;870;-75
2022/05/15 00:17:35;;;;;;;347.07;206.50;;;;;;;21.46;60.34;99553.94;339791;28;1221;-75
2022/05/15 00:17:46;;;;;;;346.45;205.98;;;;;;;21.48;60.29;99552.00;337221;29;1198;-75
2022/05/15 00:17:56;;;;;;;343.97;200.97;;;;;;;21.50;60.46;99558.03;339635;29;1308;-75
2022/05/15 00:18:07;;;;;;;344.30;201.98;;;;;;;21.49;60.48;99552.84;339492;29;1637;-75
2022/05/15 00:18:18;;;;;;;344.10;205.02;;;;;;;21.49;60.31;99553.69;339797;29;917;-75
2022/05/15 00:18:29;;;;;;;348.15;208.30;;;;;;;21.50;60.29;99559.84;337125;29;1300;-75
2022/05/15 00:18:40;;;;;;;347.73;206.75;;;;;;;21.50;60.47;99555.38;336391;29;1225;-75
2022/05/15 00:18:50;;;;;;;348.57;203.73;;;;;;;21.49;60.12;99553.69;337929;29;1683;-75
2022/05/15 00:19:01;;;;;;;347.35;204.80;;;;;;;21.49;60.18;99555.50;338428;29;887;-75
2022/05/15 00:19:11;;;;;;;346.40;204.75;;;;;;;21.50;60.69;99555.38;336260;29;1650;-75
2022/05/15 00:19:22;;;;;;;346.33;207.77;;;;;;;21.50;60.20;99555.38;338446;29;1189;-75
2022/05/15 00:19:32;;;;;;;347.58;208.20;;;;;;;21.50;60.61;99551.88;338367;29;1346;-75
2022/05/15 00:19:43;;;;;;;348.13;208.50;;;;;;;21.47;60.55;99555.63;335830;29;1194;-75
2022/05/15 00:19:53;;;;;;;346.92;203.65;;;;;;;21.45;60.56;99557.59;338120;29;1370;-75
2022/05/15 00:20:04;;;;;;;344.87;205.17;;;;;;;21.44;60.22;99550.56;337073;29;1349;-75
2022/05/15 00:20:14;;;;;;;345.05;206.48;;;;;;;21.41;60.32;99545.50;337095;29;1357;-75
2022/05/15 00:20:25;;;;;;;346.63;207.43;;;;;;;21.40;60.11;99559.81;341064;29;1253;-75
2022/05/15 00:20:37;;;;;;;347.58;206.55;;;;;;;21.40;60.41;99557.13;335751;29;1442;-75
2022/05/15 00:20:47;;;;;;;347.25;205.52;;;;;;;21.41;60.71;99561.50;338347;29;824;-75
2022/05/15 00:20:58;;;;;;;346.60;206.80;;;;;;;21.41;60.47;99548.19;338471;29;1143;-75
2022/05/15 00:21:08;;;;;;;347.50;208.75;;;;;;;21.40;60.45;99549.16;339694;29;1481;-75
2022/05/15 00:21:18;;;;;;;348.23;208.13;;;;;;;21.42;60.47;99552.53;337142;29;1923;-75
2022/05/15 00:21:29;;;;;;;346.92;204.60;;;;;;;21.42;60.20;99552.53;339717;29;997;-75
2022/05/15 00:21:40;;;;;;;348.33;205.50;;;;;;;21.39;60.61;99555.44;335331;29;3999;-75
2022/05/15 00:21:50;;;;;;;353.83;210.97;;;;;;;21.37;60.67;99544.09;337586;29;6048;-75
2022/05/15 00:22:00;;;;;;;354.43;211.23;;;;;;;21.36;60.51;99557.53;335812;29;1310;-75
2022/05/15 00:22:11;;;;;;;355.55;210.15;;;;;;;21.35;60.71;99562.03;339692;29;1898;-75
2022/05/15 00:22:21;;;;;;;349.87;203.60;;;;;;;21.36;60.44;99557.53;336545;29;6227;-75
2022/05/15 00:22:35;;;;;;;350.52;201.50;;;;;;;21.37;60.66;99560.06;339686;29;956;-75
2022/05/15 00:22:45;;;;;;;350.10;202.00;;;;;;;21.37;60.35;99565.41;337113;29;1270;-75
2022/05/15 00:22:56;;;;;;;350.70;203.32;;;;;;;21.37;60.18;99557.41;337072;29;1175;-75
2022/05/15 00:23:07;;;;;;;352.83;207.87;;;;;;;21.39;60.65;99558.13;337193;29;2475;-75
2022/05/15 00:23:19;;;;;;;349.08;203.13;;;;;;;21.41;60.17;99558.81;338342;29;1575;-75
2022/05/15 00:23:29;;;;;;;348.13;202.88;;;;;;;21.43;60.16;99556.88;337419;29;1498;-75
2022/05/15 00:23:40;;;;;;;348.73;202.02;;;;;;;21.45;60.43;99556.75;337329;29;2067;-75
2022/05/15 00:23:50;;;;;;;347.85;202.60;;;;;;;21.44;60.12;99553.25;336997;29;868;-75
2022/05/15 00:24:01;;;;;;;347.80;204.07;;;;;;;21.44;60.16;99555.91;337151;29;807;-75
2022/05/15 00:24:11;;;;;;;345.80;201.43;;;;;;;21.45;59.92;99552.25;334585;29;1360;-75
2022/05/15 00:24:22;;;;;;;345.42;202.88;;;;;;;21.45;60.36;99554.94;335813;29;1140;-75
2022/05/15 00:24:33;;;;;;;344.17;204.20;;;;;;;21.46;60.33;99553.94;337081;29;1091;-75
2022/05/15 00:24:44;;;;;;;346.00;209.35;;;;;;;21.44;60.46;99555.91;334473;29;1451;-75
2022/05/15 00:24:54;;;;;;;347.55;210.13;;;;;;;21.40;60.26;99559.81;335737;29;1330;-75
2022/05/15 00:25:05;;;;;;;345.80;205.23;;;;;;;21.40;60.03;99559.81;335867;29;1478;-75
2022/05/15 00:25:15;;;;;;;346.02;204.63;;;;;;;21.38;60.50;99559.09;341041;29;937;-75
2022/05/15 00:25:26;;;;;;;346.27;204.07;;;;;;;21.41;59.98;99563.31;340384;29;2155;-75
2022/05/15 00:25:37;;;;;;;352.02;205.57;;;;;;;21.39;60.49;99560.78;339885;29;1792;-75
2022/05/15 00:25:47;;;;;;;352.42;204.30;;;;;;;21.39;60.38;99558.13;338479;29;1052;-75
2022/05/15 00:25:58;;;;;;;350.80;204.53;;;;;;;21.39;60.12;99567.94;337117;29;1222;-75
2022/05/15 00:26:08;;;;;;;345.20;204.73;;;;;;;21.40;60.30;99559.81;335923;29;894;-75
2022/05/15 00:26:19;;;;;;;348.07;204.80;;;;;;;21.39;60.06;99555.44;338393;29;1165;-75
2022/05/15 00:26:29;;;;;;;349.50;206.35;;;;;;;21.39;60.23;99558.13;337093;29;1649;-75
2022/05/15 00:26:40;;;;;;;349.97;205.73;;;;;;;21.42;60.58;99567.66;338978;29;1481;-76
2022/05/15 00:26:50;;;;;;;349.30;206.20;;;;;;;21.42;60.41;99562.34;338333;29;1289;-76
2022/05/15 00:27:01;;;;;;;350.27;206.48;;;;;;;21.45;60.24;99560.25;338404;29;1113;-75
2022/05/15 00:27:12;;;;;;;347.55;204.13;;;;;;;21.45;59.91;99557.59;339599;29;1188;-75
2022/05/15 00:27:22;;;;;;;346.27;202.70;;;;;;;21.46;60.15;99569.94;339763;29;960;-75
2022/05/15 00:27:33;;;;;;;345.63;200.93;;;;;;;21.46;60.21;99558.44;338480;29;1281;-75
2022/05/15 00:27:43;;;;;;;346.88;203.15;;;;;;;;;;334609;29;1405;-75
2022/05/15 00:27:53;;;;;;;348.47;204.17;;;;;;;21.41;59.91;99553.50;338363;29;1218;-75
2022/05/15 00:28:04;;;;;;;347.30;205.90;;;;;;;21.40;60.18;99548.31;340957;29;1668;-75
2022/05/15 00:28:15;;;;;;;346.43;204.53;;;;;;;21.40;59.88;99559.81;335954;29;1377;-75
2022/05/15 00:28:25;;;;;;;347.02;204.15;;;;;;;21.40;60.08;99564.28;336870;29;1680;-75
2022/05/15 00:28:35;;;;;;;347.17;205.60;;;;;;;21.38;60.22;99556.44;336913;29;2386;-75
2022/05/15 00:28:46;;;;;;;346.25;204.43;;;;;;;21.38;59.89;99567.06;335811;29;1254;-75
2022/05/15 00:28:56;;;;;;;343.70;202.93;;;;;;;21.37;60.35;99560.06;335843;29;890;-75
2022/05/15 00:29:07;;;;;;;344.38;201.55;;;;;;;21.39;60.16;99563.44;338379;29;1442;-75
2022/05/15 00:29:17;;;;;;;345.80;205.63;;;;;;;21.38;60.52;99563.56;337171;29;830;-75
2022/05/15 00:29:28;;;;;;;346.35;208.00;;;;;;;21.38;60.09;99556.44;335949;29;887;-75
2022/05/15 00:29:38;;;;;;;345.37;205.50;;;;;;;21.36;60.02;99558.38;338433;29;1309;-74
2022/05/15 00:29:49;;;;;;;344.50;199.95;;;;;;;21.35;60.26;99561.16;337031;29;1000;-74
2022/05/15 00:29:59;;;;;;;344.77;194.13;;;;;;;21.34;60.12;99565.66;339683;29;951;-73
2022/05/15 00:30:12;;;;;;;348.15;193.30;;;;;;;21.32;60.05;99559.63;337158;29;868;-73
2022/05/15 00:30:23;;;;;;;349.00;195.48;;;;;;;21.35;60.19;99562.03;338477;29;876;-73
2022/05/15 00:30:34;;;;;;;349.15;202.05;;;;;;;21.35;60.24;99561.16;335901;29;1023;-75
2022/05/15 00:30:45;;;;;;;347.45;203.65;;;;;;;21.37;60.13;99559.22;338447;29;1516;-75
2022/05/15 00:30:55;;;;;;;349.30;208.07;;;;;;;21.38;60.05;99555.59;334402;29;4222;-75
2022/05/15 00:31:06;;;;;;;349.10;208.57;;;;;;;21.39;60.00;99560.78;338960;29;3496;-75
2022/05/15 00:31:16;;;;;;;352.52;213.15;;;;;;;21.39;60.11;99563.44;339746;29;858;-75
2022/05/15 00:31:27;;;;;;;350.63;210.33;;;;;;;21.40;59.78;99559.81;338183;29;3717;-75
2022/05/15 00:31:37;;;;;;;352.17;210.73;;;;;;;21.40;60.24;99557.13;334773;29;1198;-75
2022/05/15 00:31:48;;;;;;;348.73;203.17;;;;;;;21.37;60.12;99559.22;339742;29;811;-75
2022/05/15 00:31:58;;;;;;;348.30;206.02;;;;;;;21.36;60.25;99562.88;338449;29;1338;-75
2022/05/15 00:32:09;;;;;;;346.30;206.87;;;;;;;21.35;60.16;99558.50;338337;29;1216;-75
2022/05/15 00:32:19;;;;;;;348.17;209.95;;;;;;;21.34;59.91;99555.00;341060;29;1362;-75
2022/05/15 00:32:29;;;;;;;349.33;206.93;;;;;;;21.37;60.08;99565.41;338421;29;882;-75
2022/05/15 00:32:40;;;;;;;348.43;202.33;;;;;;;21.36;60.26;99563.69;339294;29;1199;-75
2022/05/15 00:32:50;;;;;;;346.25;203.15;;;;;;;21.35;60.16;99556.69;335750;29;1288;-75
2022/05/15 00:33:01;;;;;;;346.07;204.37;;;;;;;21.34;60.03;99565.66;335790;29;1081;-75
2022/05/15 00:33:11;;;;;;;343.83;202.02;;;;;;;21.34;60.17;99560.31;338460;29;1570;-75
2022/05/15 00:33:21;;;;;;;343.90;201.37;;;;;;;21.33;59.97;99558.66;339217;29;2006;-75
2022/05/15 00:33:32;;;;;;;343.00;200.00;;;;;;;21.32;60.44;99562.28;339772;29;1094;-75
2022/05/15 00:33:44;;;;;;;348.00;204.17;;;;;;;21.31;59.76;99563.25;335815;29;1205;-75
2022/05/15 00:33:54;;;;;;;347.05;201.95;;;;;;;21.32;60.21;99566.75;338233;29;1435;-75
2022/05/15 00:34:04;;;;;;;347.30;202.23;;;;;;;21.31;60.46;99560.59;338407;29;1504;-75
2022/05/15 00:34:15;;;;;;;345.60;203.02;;;;;;;21.31;59.96;99560.59;336988;29;1253;-75
2022/05/15 00:34:25;;;;;;;346.70;203.27;;;;;;;21.32;60.08;99562.28;340942;29;1261;-75
2022/05/15 00:34:36;;;;;;;344.25;201.90;;;;;;;21.33;60.05;99563.13;339810;29;830;-75
2022/05/15 00:34:46;;;;;;;343.30;201.83;;;;;;;21.34;60.22;99568.31;337248;29;1027;-75
2022/05/15 00:34:56;;;;;;;342.65;202.32;;;;;;;21.34;60.11;99565.66;334626;29;871;-75
2022/05/15 00:35:07;;;;;;;344.40;204.13;;;;;;;21.34;60.38;99562.16;337134;29;1370;-75
2022/05/15 00:35:18;;;;;;;345.30;203.25;;;;;;;21.34;60.08;99559.50;341036;29;1332;-75
2022/05/15 00:35:28;;;;;;;347.50;205.03;;;;;;;21.34;60.18;99565.66;339734;29;870;-75
2022/05/15 00:35:39;;;;;;;346.73;202.68;;;;;;;21.36;60.29;99566.38;336949;29;1187;-75
2022/05/15 00:35:50;;;;;;;346.73;202.27;;;;;;;21.35;60.26;99563.84;337289;29;2094;-75
2022/05/15 00:36:00;;;;;;;345.23;198.80;;;;;;;21.36;60.09;99558.38;336693;29;1687;-75
2022/05/15 00:36:11;;;;;;;345.77;198.73;;;;;;;21.35;60.28;99564.69;339806;29;1195;-75
2022/05/15 00:36:21;;;;;;;343.80;198.57;;;;;;;21.32;59.95;99564.09;338387;29;865;-75
2022/05/15 00:36:32;;;;;;;346.50;204.50;;;;;;;21.32;60.25;99566.75;337103;29;1365;-75
2022/05/15 00:36:42;;;;;;;347.00;205.23;;;;;;;21.32;60.44;99562.28;338420;29;1673;-75
2022/05/15 00:36:53;;;;;;;348.73;206.30;;;;;;;21.35;60.21;99562.03;341103;28;1300;-75
2022/05/15 00:37:03;;;;;;;349.37;207.07;;;;;;;21.35;60.00;99567.34;335756;29;1237;-75
2022/05/15 00:37:14;;;;;;;348.00;206.60;;;;;;;21.35;60.09;99567.34;335798;29;871;-75
2022/05/15 00:37:24;;;;;;;352.58;205.75;;;;;;;21.36;60.06;99563.69;341098;29;973;-73
2022/05/15 00:37:34;;;;;;;354.30;204.73;;;;;;;21.36;60.33;99569.03;340461;29;1397;-73
2022/05/15 00:37:45;;;;;;;355.60;206.07;;;;;;;21.33;60.34;99563.13;337833;29;2618;-75
2022/05/15 00:37:55;;;;;;;350.38;206.77;;;;;;;21.35;60.24;99559.34;334550;29;1038;-76
2022/05/15 00:38:07;;;;;;;348.77;207.30;;;;;;;21.37;60.36;99559.22;336996;29;1719;-75
2022/05/15 00:38:17;;;;;;;347.55;208.60;;;;;;;21.37;60.16;99565.41;336700;29;952;-75
2022/05/15 00:38:28;;;;;;;346.63;206.80;;;;;;;21.38;60.12;99567.06;334639;29;874;-75
2022/05/15 00:38:38;;;;;;;345.35;202.20;;;;;;;21.36;59.99;99563.69;338269;29;2127;-75
2022/05/15 00:38:49;;;;;;;346.77;201.03;;;;;;;21.35;59.89;99564.69;339665;29;1343;-75
2022/05/15 00:38:59;;;;;;;345.42;198.70;;;;;;;21.35;60.45;99564.69;338389;29;1475;-75
2022/05/15 00:39:10;;;;;;;346.77;200.03;;;;;;;21.35;60.10;99567.34;338995;29;1464;-75
2022/05/15 00:39:20;;;;;;;345.98;200.93;;;;;;;21.36;60.25;99563.69;334508;29;1338;-75
2022/05/15 00:39:30;;;;;;;344.77;202.87;;;;;;;21.38;60.14;99567.06;338556;29;946;-75
2022/05/15 00:39:41;;;;;;;344.02;204.35;;;;;;;21.39;59.95;99557.28;335833;29;1761;-75
2022/05/15 00:39:52;;;;;;;345.37;205.20;;;;;;;21.40;60.13;99565.13;339713;29;1009;-73
2022/05/15 00:40:02;;;;;;;346.48;204.15;;;;;;;21.41;60.19;99561.50;337144;29;4290;-73
2022/05/15 00:40:13;;;;;;;347.60;203.48;;;;;;;21.43;59.91;99564.88;336695;29;3234;-74
2022/05/15 00:40:24;;;;;;;347.25;204.75;;;;;;;21.44;60.03;99566.56;337892;29;3714;-74
2022/05/15 00:40:35;;;;;;;349.40;206.40;;;;;;;21.42;60.22;99563.19;338292;29;1190;-74
2022/05/15 00:40:45;;;;;;;349.73;208.70;;;;;;;21.41;59.87;99571.31;336486;29;3869;-73
2022/05/15 00:40:56;;;;;;;348.58;209.52;;;;;;;21.42;59.93;99563.19;335828;29;851;-73
2022/05/15 00:41:07;;;;;;;347.10;210.70;;;;;;;21.40;60.12;99556.28;337128;29;973;-73
2022/05/15 00:41:17;;;;;;;347.27;209.07;;;;;;;21.35;60.23;99567.34;335906;29;969;-73
2022/05/15 00:41:27;;;;;;;349.80;206.37;;;;;;;21.31;59.97;99563.25;334462;29;1968;-75
2022/05/15 00:41:38;;;;;;;351.63;205.80;;;;;;;21.32;60.22;99566.75;334624;29;839;-74
2022/05/15 00:41:49;;;;;;;352.38;206.02;;;;;;;21.32;60.20;99562.28;335942;29;1472;-74
2022/05/15 00:41:59;;;;;;;351.47;209.10;;;;;;;21.34;60.37;99570.13;335708;29;1368;-74
2022/05/15 00:42:10;;;;;;;350.02;207.85;;;;;;;21.34;60.02;99564.81;338413;29;1397;-74
2022/05/15 00:42:20;;;;;;;349.13;209.88;;;;;;;21.34;59.99;99564.81;338286;29;1241;-74
2022/05/15 00:42:31;;;;;;;348.17;208.03;;;;;;;21.33;60.23;99561.31;338498;29;897;-74
2022/05/15 00:42:41;;;;;;;346.97;208.00;;;;;;;21.31;59.99;99571.25;335808;29;757;-74
2022/05/15 00:42:51;;;;;;;346.00;205.80;;;;;;;21.31;60.35;99565.91;338414;29;1657;-74
2022/05/15 00:43:03;;;;;;;346.70;203.00;;;;;;;21.30;60.28;99558.91;337723;29;1050;-74
2022/05/15 00:43:45;;;;;;;346.92;204.88;;;;;;;21.28;59.91;99560.00;339351;29;1337;-74
2022/05/15 00:43:57;;;;;;;343.33;200.07;;;;;;;21.23;60.18;99565.72;338715;29;843;-74
2022/05/15 00:44:07;;;;;;;342.90;197.55;;;;;;;21.21;60.30;99567.72;335695;29;1566;-74
2022/05/15 00:44:18;;;;;;;345.10;201.77;;;;;;;21.23;60.41;99560.41;337002;29;1301;-74
2022/05/15 00:44:28;;;;;;;346.33;202.25;;;;;;;21.24;60.26;99565.59;336970;29;1290;-74
2022/05/15 00:44:38;;;;;;;347.87;207.30;;;;;;;21.24;60.08;99562.09;339255;29;1461;-74
2022/05/15 00:44:49;;;;;;;348.73;206.10;;;;;;;21.25;60.48;99564.63;339539;29;1182;-74
2022/05/15 00:44:59;;;;;;;347.80;202.65;;;;;;;21.25;60.22;99569.09;337092;29;1306;-74
2022/05/15 00:45:10;;;;;;;347.97;202.53;;;;;;;21.22;60.17;99564.06;338369;29;1164;-74
2022/05/15 00:45:21;;;;;;;347.50;202.82;;;;;;;21.22;60.26;99566.72;335742;29;955;-74
2022/05/15 00:45:31;;;;;;;346.80;203.25;;;;;;;21.20;60.15;99568.66;341181;29;850;-74
2022/05/15 00:45:42;;;;;;;347.83;203.48;;;;;;;21.21;60.42;99568.56;338315;29;1583;-74
2022/05/15 00:45:52;;;;;;;351.63;207.33;;;;;;;21.22;60.32;99564.06;335725;29;1307;-74
2022/05/15 00:46:04;;;;;;;354.13;209.30;;;;;;;21.19;60.01;99562.47;335824;29;921;-74
2022/05/15 00:46:28;;;;;;;352.85;207.50;;;;;;;21.21;60.05;99565.88;340759;29;1794;-74
2022/05/15 00:46:39;;;;;;;350.85;204.10;;;;;;;21.27;59.99;99572.47;338364;29;1179;-74
2022/05/15 00:46:50;;;;;;;351.42;206.90;;;;;;;21.28;60.33;99565.34;338400;29;886;-74
2022/05/15 00:47:00;;;;;;;349.93;207.67;;;;;;;21.28;60.24;99563.53;338338;29;1406;-74
2022/05/15 00:47:10;;;;;;;348.60;205.77;;;;;;;21.25;60.23;99561.13;339768;29;976;-74
2022/05/15 00:47:21;;;;;;;349.43;206.43;;;;;;;21.25;60.40;99567.28;338407;29;875;-74
2022/05/15 00:47:31;;;;;;;350.77;207.57;;;;;;;21.27;60.20;99568.97;338400;29;1651;-74
2022/05/15 00:47:42;;;;;;;353.83;209.73;;;;;;;21.26;60.24;99562.81;337915;29;1823;-74
2022/05/15 00:47:52;;;;;;;350.83;204.33;;;;;;;21.25;60.01;99566.44;337032;29;1342;-74
2022/05/15 00:48:03;;;;;;;350.53;204.37;;;;;;;21.23;60.14;99563.06;338241;29;1484;-74
2022/05/15 00:48:13;;;;;;;348.05;203.80;;;;;;;21.25;60.41;99563.78;337967;29;1673;-73
2022/05/15 00:48:24;;;;;;;350.03;206.20;;;;;;;21.23;59.98;99563.06;338313;29;1531;-73
2022/05/15 00:48:34;;;;;;;348.70;204.60;;;;;;;21.23;60.47;99563.06;337118;29;799;-73
2022/05/15 00:48:45;;;;;;;347.40;204.87;;;;;;;21.24;60.25;99556.75;337185;29;1003;-73
2022/05/15 00:48:57;;;;;;;346.52;203.68;;;;;;;21.21;59.98;99555.25;337128;29;838;-74
2022/05/15 00:49:10;;;;;;;346.10;203.50;;;;;;;21.20;59.83;99572.16;339835;29;950;-74
2022/05/15 00:49:21;;;;;;;348.15;206.45;;;;;;;21.21;60.28;99562.38;337550;29;3330;-73
2022/05/15 00:49:31;;;;;;;350.00;210.55;;;;;;;21.20;60.15;99564.16;336244;29;3900;-74
2022/05/15 00:49:42;;;;;;;353.57;210.00;;;;;;;21.22;59.94;99566.72;339769;29;1660;-74
2022/05/15 00:49:52;;;;;;;349.30;203.80;;;;;;;21.23;59.88;99563.06;339806;29;3635;-74
2022/05/15 00:50:07;;;;;;;348.70;203.97;;;;;;;21.22;59.96;99566.72;339721;29;814;-74
2022/05/15 00:50:25;;;;;;;343.73;201.63;;;;;;;21.26;60.06;99568.13;337062;29;1025;-74
2022/05/15 00:50:36;;;;;;;343.25;199.90;;;;;;;21.29;60.09;99570.53;337094;29;1311;-74